sensor_id;sensor_type;location;lat;lon;timestamp;noise_LAeq;noise_LA_min;noise_LA_max;noise_LA01;noise_LA95
37223;Laerm;28026;48.562;14.440;2023-12-20T00:00:42;44.90;32.93;77.04;;
37223;Laerm;28026;48.562;14.440;2023-12-20T00:03:13;37.86;33.44;45.75;;
37223;Laerm;28026;48.562;14.440;2023-12-20T00:05:46;38.37;32.35;50.36;;
37223;Laerm;28026;48.562;14.440;2023-12-20T00:08:17;40.51;33.44;70.91;;
37223;Laerm;28026;48.562;14.440;2023-12-20T00:10:48;38.24;34.31;41.82;;
37223;Laerm;28026;48.562;14.440;2023-12-20T00:13:19;44.70;33.44;75.10;;
37223;Laerm;28026;48.562;14.440;2023-12-20T00:15:50;38.45;32.93;50.17;;
37223;Laerm;28026;48.562;14.440;2023-12-20T00:18:21;38.66;31.68;55.15;;
37223;Laerm;28026;48.562;14.440;2023-12-20T00:20:51;41.37;34.69;65.28;;
37223;Laerm;28026;48.562;14.440;2023-12-20T00:23:23;45.93;34.31;78.30;;
37223;Laerm;28026;48.562;14.440;2023-12-20T00:25:54;38.34;32.93;44.15;;
37223;Laerm;28026;48.562;14.440;2023-12-20T00:28:25;38.09;33.44;41.61;;
37223;Laerm;28026;48.562;14.440;2023-12-20T00:30:56;38.18;32.35;44.35;;
37223;Laerm;28026;48.562;14.440;2023-12-20T00:33:26;38.03;32.35;41.22;;
37223;Laerm;28026;48.562;14.440;2023-12-20T00:35:57;37.81;32.93;40.71;;
37223;Laerm;28026;48.562;14.440;2023-12-20T00:38:28;37.73;33.44;41.14;;
37223;Laerm;28026;48.562;14.440;2023-12-20T00:40:59;37.65;32.35;42.98;;
37223;Laerm;28026;48.562;14.440;2023-12-20T00:43:30;37.61;31.68;49.35;;
37223;Laerm;28026;48.562;14.440;2023-12-20T00:46:01;37.53;32.93;40.23;;
37223;Laerm;28026;48.562;14.440;2023-12-20T00:48:32;37.48;33.09;40.33;;
37223;Laerm;28026;48.562;14.440;2023-12-20T00:51:03;38.07;32.93;42.65;;
37223;Laerm;28026;48.562;14.440;2023-12-20T00:53:34;40.17;35.36;46.33;;
37223;Laerm;28026;48.562;14.440;2023-12-20T00:56:05;37.86;32.93;53.02;;
37223;Laerm;28026;48.562;14.440;2023-12-20T00:58:36;37.88;32.35;54.18;;
37223;Laerm;28026;48.562;14.440;2023-12-20T01:01:07;37.72;32.35;41.89;;
37223;Laerm;28026;48.562;14.440;2023-12-20T01:03:38;38.05;31.68;53.96;;
37223;Laerm;28026;48.562;14.440;2023-12-20T01:06:09;41.57;34.31;49.94;;
37223;Laerm;28026;48.562;14.440;2023-12-20T01:08:40;37.81;32.93;41.22;;
37223;Laerm;28026;48.562;14.440;2023-12-20T01:11:11;37.54;31.68;40.89;;
37223;Laerm;28026;48.562;14.440;2023-12-20T01:13:42;37.76;32.93;40.23;;
37223;Laerm;28026;48.562;14.440;2023-12-20T01:16:13;37.51;30.89;40.43;;
37223;Laerm;28026;48.562;14.440;2023-12-20T01:18:44;37.48;31.68;40.23;;
37223;Laerm;28026;48.562;14.440;2023-12-20T01:21:14;38.23;30.89;44.11;;
37223;Laerm;28026;48.562;14.440;2023-12-20T01:23:45;37.40;32.35;40.53;;
37223;Laerm;28026;48.562;14.440;2023-12-20T01:26:16;37.31;32.35;40.33;;
37223;Laerm;28026;48.562;14.440;2023-12-20T01:28:47;37.16;30.89;40.03;;
37223;Laerm;28026;48.562;14.440;2023-12-20T01:31:18;37.41;32.35;40.33;;
37223;Laerm;28026;48.562;14.440;2023-12-20T01:33:49;37.23;31.68;55.77;;
37223;Laerm;28026;48.562;14.440;2023-12-20T01:36:19;37.64;32.35;56.79;;
37223;Laerm;28026;48.562;14.440;2023-12-20T01:38:50;50.95;32.93;75.82;;
37223;Laerm;28026;48.562;14.440;2023-12-20T01:41:21;37.86;32.35;49.15;;
37223;Laerm;28026;48.562;14.440;2023-12-20T01:43:52;39.52;32.35;61.90;;
37223;Laerm;28026;48.562;14.440;2023-12-20T01:46:25;39.28;32.35;59.67;;
37223;Laerm;28026;48.562;14.440;2023-12-20T01:48:57;44.17;31.68;66.18;;
37223;Laerm;28026;48.562;14.440;2023-12-20T01:51:29;38.65;29.92;55.12;;
37223;Laerm;28026;48.562;14.440;2023-12-20T01:54:01;39.00;32.35;56.94;;
37223;Laerm;28026;48.562;14.440;2023-12-20T01:56:33;43.31;32.35;68.20;;
37223;Laerm;28026;48.562;14.440;2023-12-20T01:59:05;50.82;32.35;81.38;;
37223;Laerm;28026;48.562;14.440;2023-12-20T02:01:37;38.71;32.35;58.43;;
37223;Laerm;28026;48.562;14.440;2023-12-20T02:04:08;38.94;32.93;61.36;;
37223;Laerm;28026;48.562;14.440;2023-12-20T02:06:40;45.57;33.90;78.09;;
37223;Laerm;28026;48.562;14.440;2023-12-20T02:09:11;50.78;32.93;76.31;;
37223;Laerm;28026;48.562;14.440;2023-12-20T02:11:43;48.46;32.35;75.58;;
37223;Laerm;28026;48.562;14.440;2023-12-20T02:14:14;47.34;32.35;77.44;;
37223;Laerm;28026;48.562;14.440;2023-12-20T02:16:45;47.70;32.00;77.79;;
37223;Laerm;28026;48.562;14.440;2023-12-20T02:19:19;48.44;33.44;71.52;;
37223;Laerm;28026;48.562;14.440;2023-12-20T02:22:04;41.93;32.93;68.75;;
37223;Laerm;28026;48.562;14.440;2023-12-20T02:24:35;50.95;34.69;77.22;;
37223;Laerm;28026;48.562;14.440;2023-12-20T02:27:07;51.88;33.90;76.82;;
37223;Laerm;28026;48.562;14.440;2023-12-20T02:29:38;50.17;32.35;82.46;;
37223;Laerm;28026;48.562;14.440;2023-12-20T02:32:09;55.53;33.44;84.43;;
37223;Laerm;28026;48.562;14.440;2023-12-20T02:34:40;49.92;34.31;76.33;;
37223;Laerm;28026;48.562;14.440;2023-12-20T02:37:11;47.44;34.69;78.95;;
37223;Laerm;28026;48.562;14.440;2023-12-20T02:39:42;65.52;36.45;96.35;;
37223;Laerm;28026;48.562;14.440;2023-12-20T02:42:13;61.02;35.66;84.27;;
37223;Laerm;28026;48.562;14.440;2023-12-20T02:44:44;57.42;35.66;79.96;;
37223;Laerm;28026;48.562;14.440;2023-12-20T02:47:15;59.47;36.45;85.35;;
37223;Laerm;28026;48.562;14.440;2023-12-20T02:49:46;55.44;36.91;80.22;;
37223;Laerm;28026;48.562;14.440;2023-12-20T02:52:16;45.70;36.69;69.94;;
37223;Laerm;28026;48.562;14.440;2023-12-20T02:54:47;45.77;35.66;68.11;;
37223;Laerm;28026;48.562;14.440;2023-12-20T02:57:18;52.39;35.04;77.57;;
37223;Laerm;28026;48.562;14.440;2023-12-20T02:59:49;56.35;35.66;83.18;;
37223;Laerm;28026;48.562;14.440;2023-12-20T03:02:20;49.44;33.90;77.22;;
37223;Laerm;28026;48.562;14.440;2023-12-20T03:04:51;51.63;35.36;77.64;;
37223;Laerm;28026;48.562;14.440;2023-12-20T03:07:21;51.98;34.69;80.06;;
37223;Laerm;28026;48.562;14.440;2023-12-20T03:09:52;41.24;34.31;63.17;;
37223;Laerm;28026;48.562;14.440;2023-12-20T03:12:23;52.10;35.36;85.82;;
37223;Laerm;28026;48.562;14.440;2023-12-20T03:14:54;47.29;33.90;75.42;;
37223;Laerm;28026;48.562;14.440;2023-12-20T03:17:25;57.29;35.36;80.76;;
37223;Laerm;28026;48.562;14.440;2023-12-20T03:19:56;46.41;34.69;72.31;;
37223;Laerm;28026;48.562;14.440;2023-12-20T03:22:26;57.26;33.44;80.64;;
37223;Laerm;28026;48.562;14.440;2023-12-20T03:24:57;42.70;33.90;68.99;;
37223;Laerm;28026;48.562;14.440;2023-12-20T03:27:28;51.37;35.04;79.45;;
37223;Laerm;28026;48.562;14.440;2023-12-20T03:29:59;54.79;34.31;87.56;;
37223;Laerm;28026;48.562;14.440;2023-12-20T03:32:30;52.98;33.44;79.09;;
37223;Laerm;28026;48.562;14.440;2023-12-20T03:35:01;43.22;34.69;70.48;;
37223;Laerm;28026;48.562;14.440;2023-12-20T03:37:32;43.41;32.35;70.46;;
37223;Laerm;28026;48.562;14.440;2023-12-20T03:40:03;44.06;33.44;67.86;;
37223;Laerm;28026;48.562;14.440;2023-12-20T03:42:34;54.68;35.94;87.49;;
37223;Laerm;28026;48.562;14.440;2023-12-20T03:45:06;45.51;33.44;71.62;;
37223;Laerm;28026;48.562;14.440;2023-12-20T03:47:37;44.90;34.31;72.86;;
37223;Laerm;28026;48.562;14.440;2023-12-20T03:50:08;54.70;35.04;85.57;;
37223;Laerm;28026;48.562;14.440;2023-12-20T03:52:39;43.93;35.04;69.60;;
37223;Laerm;28026;48.562;14.440;2023-12-20T03:55:10;48.79;34.69;76.06;;
37223;Laerm;28026;48.562;14.440;2023-12-20T03:57:41;50.68;37.52;81.10;;
37223;Laerm;28026;48.562;14.440;2023-12-20T04:00:12;59.73;36.91;89.95;;
37223;Laerm;28026;48.562;14.440;2023-12-20T04:02:43;63.02;35.36;92.20;;
37223;Laerm;28026;48.562;14.440;2023-12-20T04:05:14;43.50;34.31;64.23;;
37223;Laerm;28026;48.562;14.440;2023-12-20T04:07:45;45.14;36.45;70.79;;
37223;Laerm;28026;48.562;14.440;2023-12-20T04:10:16;46.42;35.66;72.03;;
37223;Laerm;28026;48.562;14.440;2023-12-20T04:12:47;47.10;33.90;71.07;;
37223;Laerm;28026;48.562;14.440;2023-12-20T04:15:18;45.61;36.45;69.08;;
37223;Laerm;28026;48.562;14.440;2023-12-20T04:17:48;44.37;35.04;66.81;;
37223;Laerm;28026;48.562;14.440;2023-12-20T04:20:19;46.05;37.70;70.94;;
37223;Laerm;28026;48.562;14.440;2023-12-20T04:22:50;63.33;35.66;89.07;;
37223;Laerm;28026;48.562;14.440;2023-12-20T04:25:21;43.74;36.45;66.66;;
37223;Laerm;28026;48.562;14.440;2023-12-20T04:27:52;44.95;37.12;66.24;;
37223;Laerm;28026;48.562;14.440;2023-12-20T04:30:23;46.68;35.94;77.55;;
37223;Laerm;28026;48.562;14.440;2023-12-20T04:32:54;46.82;35.36;72.42;;
37223;Laerm;28026;48.562;14.440;2023-12-20T04:35:24;45.49;35.66;70.87;;
37223;Laerm;28026;48.562;14.440;2023-12-20T04:37:55;44.05;35.66;63.52;;
37223;Laerm;28026;48.562;14.440;2023-12-20T04:40:26;50.05;35.04;77.80;;
37223;Laerm;28026;48.562;14.440;2023-12-20T04:42:57;56.49;37.32;85.05;;
37223;Laerm;28026;48.562;14.440;2023-12-20T04:45:28;47.52;36.45;74.88;;
37223;Laerm;28026;48.562;14.440;2023-12-20T04:47:59;41.38;34.31;61.82;;
37223;Laerm;28026;48.562;14.440;2023-12-20T04:50:30;60.48;35.04;88.97;;
37223;Laerm;28026;48.562;14.440;2023-12-20T04:53:01;45.47;36.91;66.39;;
37223;Laerm;28026;48.562;14.440;2023-12-20T04:55:31;41.19;34.69;58.38;;
37223;Laerm;28026;48.562;14.440;2023-12-20T04:58:02;42.88;34.31;65.86;;
37223;Laerm;28026;48.562;14.440;2023-12-20T05:00:33;45.28;35.36;68.25;;
37223;Laerm;28026;48.562;14.440;2023-12-20T05:03:04;46.36;35.04;67.07;;
37223;Laerm;28026;48.562;14.440;2023-12-20T05:05:36;42.08;35.01;56.54;;
37223;Laerm;28026;48.562;14.440;2023-12-20T05:08:07;44.57;36.20;67.79;;
37223;Laerm;28026;48.562;14.440;2023-12-20T05:10:38;43.67;37.52;64.06;;
37223;Laerm;28026;48.562;14.440;2023-12-20T05:13:10;49.10;36.69;73.20;;
37223;Laerm;28026;48.562;14.440;2023-12-20T05:15:41;42.77;33.90;66.26;;
37223;Laerm;28026;48.562;14.440;2023-12-20T05:18:13;47.63;34.31;70.54;;
37223;Laerm;28026;48.562;14.440;2023-12-20T05:20:44;55.65;35.94;83.34;;
37223;Laerm;28026;48.562;14.440;2023-12-20T05:23:16;58.20;38.05;82.75;;
37223;Laerm;28026;48.562;14.440;2023-12-20T05:25:47;48.54;36.20;75.11;;
37223;Laerm;28026;48.562;14.440;2023-12-20T05:28:19;51.49;36.45;78.20;;
37223;Laerm;28026;48.562;14.440;2023-12-20T05:30:50;51.04;36.45;80.66;;
37223;Laerm;28026;48.562;14.440;2023-12-20T05:33:21;50.50;36.20;76.46;;
37223;Laerm;28026;48.562;14.440;2023-12-20T05:35:52;56.37;36.45;85.34;;
37223;Laerm;28026;48.562;14.440;2023-12-20T05:38:22;47.29;35.36;70.39;;
37223;Laerm;28026;48.562;14.440;2023-12-20T05:40:54;49.65;35.36;73.57;;
37223;Laerm;28026;48.562;14.440;2023-12-20T05:43:24;52.57;37.12;80.26;;
37223;Laerm;28026;48.562;14.440;2023-12-20T05:45:55;48.11;38.32;73.62;;
37223;Laerm;28026;48.562;14.440;2023-12-20T05:48:26;43.12;36.45;61.91;;
37223;Laerm;28026;48.562;14.440;2023-12-20T05:50:58;51.06;37.32;78.47;;
37223;Laerm;28026;48.562;14.440;2023-12-20T05:53:29;46.54;36.91;75.28;;
37223;Laerm;28026;48.562;14.440;2023-12-20T05:55:59;53.49;35.94;79.55;;
37223;Laerm;28026;48.562;14.440;2023-12-20T05:58:32;47.99;38.47;72.57;;
37223;Laerm;28026;48.562;14.440;2023-12-20T06:01:06;48.45;38.52;71.72;;
37223;Laerm;28026;48.562;14.440;2023-12-20T06:03:42;48.42;36.69;77.02;;
37223;Laerm;28026;48.562;14.440;2023-12-20T06:06:13;46.65;36.45;72.67;;
37223;Laerm;28026;48.562;14.440;2023-12-20T06:08:44;44.49;35.66;70.26;;
37223;Laerm;28026;48.562;14.440;2023-12-20T06:11:15;55.73;35.04;87.68;;
37223;Laerm;28026;48.562;14.440;2023-12-20T06:13:46;52.10;37.70;78.71;;
37223;Laerm;28026;48.562;14.440;2023-12-20T06:16:23;50.71;35.66;76.94;;
37223;Laerm;28026;48.562;14.440;2023-12-20T06:18:56;42.40;35.04;67.12;;
37223;Laerm;28026;48.562;14.440;2023-12-20T06:21:27;50.44;38.67;77.10;;
37223;Laerm;28026;48.562;14.440;2023-12-20T06:23:59;43.79;38.21;59.81;;
37223;Laerm;28026;48.562;14.440;2023-12-20T06:26:30;51.48;37.70;79.75;;
37223;Laerm;28026;48.562;14.440;2023-12-20T06:29:01;48.67;36.91;74.30;;
37223;Laerm;28026;48.562;14.440;2023-12-20T06:31:32;57.14;37.12;87.35;;
37223;Laerm;28026;48.562;14.440;2023-12-20T06:34:04;53.65;35.66;84.11;;
37223;Laerm;28026;48.562;14.440;2023-12-20T06:36:34;47.95;37.70;71.25;;
37223;Laerm;28026;48.562;14.440;2023-12-20T06:39:05;47.22;36.91;72.24;;
37223;Laerm;28026;48.562;14.440;2023-12-20T06:41:36;48.28;38.21;73.01;;
37223;Laerm;28026;48.562;14.440;2023-12-20T06:44:07;43.81;37.32;65.48;;
37223;Laerm;28026;48.562;14.440;2023-12-20T06:46:38;52.50;37.12;80.72;;
37223;Laerm;28026;48.562;14.440;2023-12-20T06:49:09;50.99;36.91;81.06;;
37223;Laerm;28026;48.562;14.440;2023-12-20T06:51:40;45.45;37.87;68.33;;
37223;Laerm;28026;48.562;14.440;2023-12-20T06:54:11;44.58;35.94;66.30;;
37223;Laerm;28026;48.562;14.440;2023-12-20T06:56:42;50.47;37.88;78.93;;
37223;Laerm;28026;48.562;14.440;2023-12-20T06:59:12;47.90;39.34;73.79;;
37223;Laerm;28026;48.562;14.440;2023-12-20T07:01:48;44.67;37.35;67.48;;
37223;Laerm;28026;48.562;14.440;2023-12-20T07:04:20;50.86;35.94;81.00;;
37223;Laerm;28026;48.562;14.440;2023-12-20T07:06:52;48.68;37.52;76.53;;
37223;Laerm;28026;48.562;14.440;2023-12-20T07:09:27;59.08;36.45;89.12;;
37223;Laerm;28026;48.562;14.440;2023-12-20T07:11:58;52.94;36.45;75.36;;
37223;Laerm;28026;48.562;14.440;2023-12-20T07:14:29;49.00;37.70;73.21;;
37223;Laerm;28026;48.562;14.440;2023-12-20T07:17:00;51.19;37.32;82.23;;
37223;Laerm;28026;48.562;14.440;2023-12-20T07:19:31;48.38;37.70;78.07;;
37223;Laerm;28026;48.562;14.440;2023-12-20T07:22:03;45.19;36.45;67.91;;
37223;Laerm;28026;48.562;14.440;2023-12-20T07:24:35;45.81;36.45;66.75;;
37223;Laerm;28026;48.562;14.440;2023-12-20T07:27:06;47.24;36.45;74.62;;
37223;Laerm;28026;48.562;14.440;2023-12-20T07:29:36;44.16;35.94;71.23;;
37223;Laerm;28026;48.562;14.440;2023-12-20T07:32:07;44.19;36.45;66.56;;
37223;Laerm;28026;48.562;14.440;2023-12-20T07:34:39;50.87;35.36;83.52;;
37223;Laerm;28026;48.562;14.440;2023-12-20T07:37:10;42.73;35.66;66.47;;
37223;Laerm;28026;48.562;14.440;2023-12-20T07:39:42;45.61;37.88;68.59;;
37223;Laerm;28026;48.562;14.440;2023-12-20T07:42:13;44.16;36.69;63.45;;
37223;Laerm;28026;48.562;14.440;2023-12-20T07:44:45;46.30;35.66;70.33;;
37223;Laerm;28026;48.562;14.440;2023-12-20T07:47:16;46.56;36.45;71.71;;
37223;Laerm;28026;48.562;14.440;2023-12-20T07:49:52;48.78;38.05;74.66;;
37223;Laerm;28026;48.562;14.440;2023-12-20T07:52:23;60.40;38.05;87.82;;
37223;Laerm;28026;48.562;14.440;2023-12-20T07:54:54;70.42;39.08;100.27;;
37223;Laerm;28026;48.562;14.440;2023-12-20T07:57:25;65.21;39.21;89.10;;
37223;Laerm;28026;48.562;14.440;2023-12-20T07:59:56;48.20;39.11;71.31;;
37223;Laerm;28026;48.562;14.440;2023-12-20T08:02:27;48.98;38.05;75.60;;
37223;Laerm;28026;48.562;14.440;2023-12-20T08:04:57;57.63;38.37;86.91;;
37223;Laerm;28026;48.562;14.440;2023-12-20T08:07:28;52.60;37.32;75.97;;
37223;Laerm;28026;48.562;14.440;2023-12-20T08:09:59;56.88;38.21;82.43;;
37223;Laerm;28026;48.562;14.440;2023-12-20T08:12:30;59.31;38.67;84.61;;
37223;Laerm;28026;48.562;14.440;2023-12-20T08:15:02;57.49;38.95;84.56;;
37223;Laerm;28026;48.562;14.440;2023-12-20T08:17:34;59.01;40.71;85.47;;
37223;Laerm;28026;48.562;14.440;2023-12-20T08:20:06;59.04;39.58;82.06;;
37223;Laerm;28026;48.562;14.440;2023-12-20T08:22:37;66.85;39.92;95.92;;
37223;Laerm;28026;48.562;14.440;2023-12-20T08:25:08;53.49;37.88;77.55;;
37223;Laerm;28026;48.562;14.440;2023-12-20T08:27:42;60.58;38.81;89.64;;
37223;Laerm;28026;48.562;14.440;2023-12-20T08:30:13;60.91;39.35;87.48;;
37223;Laerm;28026;48.562;14.440;2023-12-20T08:32:44;52.90;40.89;81.06;;
37223;Laerm;28026;48.562;14.440;2023-12-20T08:35:15;47.46;38.52;73.47;;
37223;Laerm;28026;48.562;14.440;2023-12-20T08:37:46;63.33;39.21;87.72;;
37223;Laerm;28026;48.562;14.440;2023-12-20T08:40:17;46.22;39.21;67.03;;
37223;Laerm;28026;48.562;14.440;2023-12-20T08:42:48;51.93;39.58;80.20;;
37223;Laerm;28026;48.562;14.440;2023-12-20T08:45:18;52.02;40.13;77.67;;
37223;Laerm;28026;48.562;14.440;2023-12-20T08:47:49;65.99;40.63;90.50;;
37223;Laerm;28026;48.562;14.440;2023-12-20T08:50:20;68.88;39.92;94.42;;
37223;Laerm;28026;48.562;14.440;2023-12-20T08:52:51;53.72;39.58;81.66;;
37223;Laerm;28026;48.562;14.440;2023-12-20T08:55:22;54.47;39.46;80.41;;
37223;Laerm;28026;48.562;14.440;2023-12-20T08:57:53;55.40;39.81;77.95;;
37223;Laerm;28026;48.562;14.440;2023-12-20T09:00:24;58.45;38.67;81.95;;
37223;Laerm;28026;48.562;14.440;2023-12-20T09:02:58;61.68;40.23;89.95;;
37223;Laerm;28026;48.562;14.440;2023-12-20T09:05:28;61.60;40.33;82.59;;
37223;Laerm;28026;48.562;14.440;2023-12-20T09:07:59;60.87;39.70;88.24;;
37223;Laerm;28026;48.562;14.440;2023-12-20T09:10:30;65.29;40.23;92.83;;
37223;Laerm;28026;48.562;14.440;2023-12-20T09:13:01;60.19;40.13;82.98;;
37223;Laerm;28026;48.562;14.440;2023-12-20T09:15:33;62.84;40.98;87.35;;
37223;Laerm;28026;48.562;14.440;2023-12-20T09:18:05;66.70;40.33;94.90;;
37223;Laerm;28026;48.562;14.440;2023-12-20T09:20:36;68.91;41.75;89.20;;
37223;Laerm;28026;48.562;14.440;2023-12-20T09:23:07;63.73;41.68;86.67;;
37223;Laerm;28026;48.562;14.440;2023-12-20T09:25:38;69.86;41.41;95.70;;
37223;Laerm;28026;48.562;14.440;2023-12-20T09:28:09;63.18;39.99;87.23;;
37223;Laerm;28026;48.562;14.440;2023-12-20T09:30:40;70.72;39.08;98.41;;
37223;Laerm;28026;48.562;14.440;2023-12-20T09:33:12;64.21;39.34;89.06;;
37223;Laerm;28026;48.562;14.440;2023-12-20T09:35:43;66.64;41.22;89.41;;
37223;Laerm;28026;48.562;14.440;2023-12-20T09:38:14;58.02;42.65;84.54;;
37223;Laerm;28026;48.562;14.440;2023-12-20T09:40:46;55.55;41.61;77.53;;
37223;Laerm;28026;48.562;14.440;2023-12-20T09:43:24;45.79;39.21;72.93;;
37223;Laerm;28026;48.562;14.440;2023-12-20T09:46:00;52.76;38.95;77.52;;
37223;Laerm;28026;48.562;14.440;2023-12-20T09:48:39;54.05;38.95;82.92;;
37223;Laerm;28026;48.562;14.440;2023-12-20T09:51:12;61.02;38.95;90.56;;
37223;Laerm;28026;48.562;14.440;2023-12-20T09:53:44;58.39;39.58;85.73;;
37223;Laerm;28026;48.562;14.440;2023-12-20T09:56:17;69.27;39.81;101.03;;
37223;Laerm;28026;48.562;14.440;2023-12-20T09:58:48;62.67;40.43;92.89;;
37223;Laerm;28026;48.562;14.440;2023-12-20T10:01:19;51.38;40.53;79.76;;
37223;Laerm;28026;48.562;14.440;2023-12-20T10:03:54;54.53;40.13;78.59;;
37223;Laerm;28026;48.562;14.440;2023-12-20T10:06:25;61.51;39.70;89.54;;
37223;Laerm;28026;48.562;14.440;2023-12-20T10:08:56;64.76;40.53;87.97;;
37223;Laerm;28026;48.562;14.440;2023-12-20T10:11:27;68.26;39.92;98.65;;
37223;Laerm;28026;48.562;14.440;2023-12-20T10:14:01;64.62;40.71;93.04;;
37223;Laerm;28026;48.562;14.440;2023-12-20T10:16:33;55.17;40.71;81.17;;
37223;Laerm;28026;48.562;14.440;2023-12-20T10:19:04;66.31;39.92;91.80;;
37223;Laerm;28026;48.562;14.440;2023-12-20T10:21:35;53.74;40.13;83.96;;
37223;Laerm;28026;48.562;14.440;2023-12-20T10:24:06;60.89;40.53;85.50;;
37223;Laerm;28026;48.562;14.440;2023-12-20T10:26:37;60.22;40.33;85.85;;
37223;Laerm;28026;48.562;14.440;2023-12-20T10:29:10;65.45;41.53;89.62;;
37223;Laerm;28026;48.562;14.440;2023-12-20T10:31:42;59.72;42.03;82.58;;
37223;Laerm;28026;48.562;14.440;2023-12-20T10:34:14;65.83;41.89;93.84;;
37223;Laerm;28026;48.562;14.440;2023-12-20T10:36:44;68.00;41.38;93.52;;
37223;Laerm;28026;48.562;14.440;2023-12-20T10:39:17;68.51;40.53;99.46;;
37223;Laerm;28026;48.562;14.440;2023-12-20T10:41:49;63.38;41.06;90.83;;
37223;Laerm;28026;48.562;14.440;2023-12-20T10:44:20;63.82;39.70;94.11;;
37223;Laerm;28026;48.562;14.440;2023-12-20T10:46:51;62.25;40.13;88.99;;
37223;Laerm;28026;48.562;14.440;2023-12-20T10:49:31;59.52;40.98;81.26;;
37223;Laerm;28026;48.562;14.440;2023-12-20T10:52:07;59.67;39.08;83.57;;
37223;Laerm;28026;48.562;14.440;2023-12-20T10:54:40;59.62;39.70;83.47;;
37223;Laerm;28026;48.562;14.440;2023-12-20T10:57:12;60.37;41.14;82.98;;
37223;Laerm;28026;48.562;14.440;2023-12-20T10:59:45;64.73;39.58;89.08;;
37223;Laerm;28026;48.562;14.440;2023-12-20T11:02:21;57.16;39.70;82.44;;
37223;Laerm;28026;48.562;14.440;2023-12-20T11:11:37;49.08;38.81;75.95;;
37223;Laerm;28026;48.562;14.440;2023-12-20T11:14:29;49.07;38.52;79.63;;
37223;Laerm;28026;48.562;14.440;2023-12-20T11:17:10;49.61;38.37;73.51;;
37223;Laerm;28026;48.562;14.440;2023-12-20T11:22:32;56.72;38.67;86.87;;
37223;Laerm;28026;48.562;14.440;2023-12-20T11:25:10;55.71;37.32;80.98;;
37223;Laerm;28026;48.562;14.440;2023-12-20T11:27:43;55.42;37.70;78.74;;
37223;Laerm;28026;48.562;14.440;2023-12-20T11:30:14;55.44;37.70;81.48;;
37223;Laerm;28026;48.562;14.440;2023-12-20T11:32:46;57.88;37.70;84.13;;
37223;Laerm;28026;48.562;14.440;2023-12-20T11:35:19;47.64;35.66;73.27;;
37223;Laerm;28026;48.562;14.440;2023-12-20T11:37:51;50.74;37.12;75.96;;
37223;Laerm;28026;48.562;14.440;2023-12-20T11:40:23;44.89;36.20;64.18;;
37223;Laerm;28026;48.562;14.440;2023-12-20T11:42:55;44.51;36.45;69.73;;
37223;Laerm;28026;48.562;14.440;2023-12-20T11:45:27;57.25;35.94;87.62;;
37223;Laerm;28026;48.562;14.440;2023-12-20T11:47:58;54.71;36.34;86.16;;
37223;Laerm;28026;48.562;14.440;2023-12-20T11:50:30;49.43;35.04;76.57;;
37223;Laerm;28026;48.562;14.440;2023-12-20T11:53:01;41.92;35.66;66.19;;
37223;Laerm;28026;48.562;14.440;2023-12-20T11:55:34;52.59;37.32;80.78;;
37223;Laerm;28026;48.562;14.440;2023-12-20T11:58:05;49.85;37.70;74.75;;
37223;Laerm;28026;48.562;14.440;2023-12-20T12:00:36;52.13;37.17;76.87;;
37223;Laerm;28026;48.562;14.440;2023-12-20T12:03:06;52.29;37.52;77.67;;
37223;Laerm;28026;48.562;14.440;2023-12-20T12:05:37;49.93;39.08;75.01;;
37223;Laerm;28026;48.562;14.440;2023-12-20T12:08:08;45.68;37.12;75.13;;
37223;Laerm;28026;48.562;14.440;2023-12-20T12:10:39;56.31;36.69;89.97;;
37223;Laerm;28026;48.562;14.440;2023-12-20T12:13:11;46.39;37.52;75.24;;
37223;Laerm;28026;48.562;14.440;2023-12-20T12:15:42;43.53;36.69;62.17;;
37223;Laerm;28026;48.562;14.440;2023-12-20T12:18:17;43.91;37.88;61.63;;
37223;Laerm;28026;48.562;14.440;2023-12-20T12:20:48;49.80;36.45;72.39;;
37223;Laerm;28026;48.562;14.440;2023-12-20T12:23:25;44.77;35.04;66.77;;
37223;Laerm;28026;48.562;14.440;2023-12-20T12:25:56;53.92;38.37;80.85;;
37223;Laerm;28026;48.562;14.440;2023-12-20T12:28:27;54.27;38.21;82.70;;
37223;Laerm;28026;48.562;14.440;2023-12-20T12:31:03;42.31;38.05;56.89;;
37223;Laerm;28026;48.562;14.440;2023-12-20T12:33:34;46.33;37.12;74.97;;
37223;Laerm;28026;48.562;14.440;2023-12-20T12:36:07;48.41;38.21;74.19;;
37223;Laerm;28026;48.562;14.440;2023-12-20T12:38:38;45.13;35.36;72.53;;
37223;Laerm;28026;48.562;14.440;2023-12-20T12:41:09;43.48;34.31;68.01;;
37223;Laerm;28026;48.562;14.440;2023-12-20T12:43:41;48.33;36.69;78.96;;
37223;Laerm;28026;48.562;14.440;2023-12-20T12:46:12;49.71;35.36;75.00;;
37223;Laerm;28026;48.562;14.440;2023-12-20T12:48:43;47.56;36.45;75.56;;
37223;Laerm;28026;48.562;14.440;2023-12-20T12:51:14;51.81;37.52;79.05;;
37223;Laerm;28026;48.562;14.440;2023-12-20T12:53:45;53.27;36.69;81.99;;
37223;Laerm;28026;48.562;14.440;2023-12-20T12:56:16;51.85;35.36;75.74;;
37223;Laerm;28026;48.562;14.440;2023-12-20T12:58:47;46.33;35.04;75.16;;
37223;Laerm;28026;48.562;14.440;2023-12-20T13:01:18;44.65;36.20;73.16;;
37223;Laerm;28026;48.562;14.440;2023-12-20T13:03:49;45.37;38.05;67.30;;
37223;Laerm;28026;48.562;14.440;2023-12-20T13:06:20;46.04;36.56;67.31;;
37223;Laerm;28026;48.562;14.440;2023-12-20T13:08:51;48.29;34.31;75.46;;
37223;Laerm;28026;48.562;14.440;2023-12-20T13:11:22;43.67;36.45;69.47;;
37223;Laerm;28026;48.562;14.440;2023-12-20T13:13:53;48.53;35.94;78.33;;
37223;Laerm;28026;48.562;14.440;2023-12-20T13:16:24;50.81;36.91;80.52;;
37223;Laerm;28026;48.562;14.440;2023-12-20T13:18:55;43.44;37.52;55.51;;
37223;Laerm;28026;48.562;14.440;2023-12-20T13:21:26;51.94;37.70;78.23;;
37223;Laerm;28026;48.562;14.440;2023-12-20T13:23:57;46.72;35.04;75.97;;
37223;Laerm;28026;48.562;14.440;2023-12-20T13:26:28;44.62;35.94;69.12;;
37223;Laerm;28026;48.562;14.440;2023-12-20T13:28:59;44.86;36.91;69.71;;
37223;Laerm;28026;48.562;14.440;2023-12-20T13:31:30;44.23;35.36;68.74;;
37223;Laerm;28026;48.562;14.440;2023-12-20T13:34:01;44.87;35.04;69.93;;
37223;Laerm;28026;48.562;14.440;2023-12-20T13:36:32;42.66;35.94;67.22;;
37223;Laerm;28026;48.562;14.440;2023-12-20T13:39:03;58.17;35.94;81.93;;
37223;Laerm;28026;48.562;14.440;2023-12-20T13:41:35;59.13;37.32;85.71;;
37223;Laerm;28026;48.562;14.440;2023-12-20T13:44:06;53.94;36.91;85.94;;
37223;Laerm;28026;48.562;14.440;2023-12-20T13:46:37;58.52;37.12;85.97;;
37223;Laerm;28026;48.562;14.440;2023-12-20T13:49:08;60.24;37.32;89.65;;
37223;Laerm;28026;48.562;14.440;2023-12-20T13:51:39;57.86;36.91;81.98;;
37223;Laerm;28026;48.562;14.440;2023-12-20T13:54:10;53.31;38.05;77.64;;
37223;Laerm;28026;48.562;14.440;2023-12-20T13:56:41;68.82;37.32;95.70;;
37223;Laerm;28026;48.562;14.440;2023-12-20T13:59:12;63.91;36.91;88.94;;
37223;Laerm;28026;48.562;14.440;2023-12-20T14:01:44;56.83;38.81;85.51;;
37223;Laerm;28026;48.562;14.440;2023-12-20T14:04:15;53.27;38.67;78.68;;